createdAt,value
2019-01-28T00:03:23.772Z,2.82
2019-01-28T00:08:26.066Z,2.87
2019-01-28T00:13:28.357Z,2.96
2019-01-28T00:18:31.296Z,2.79
2019-01-28T00:23:34.482Z,2.75
2019-01-28T00:28:36.753Z,2.73
2019-01-28T00:33:39.555Z,2.84
2019-01-28T00:38:41.941Z,2.71
2019-01-28T00:43:44.495Z,2.88
2019-01-28T00:48:47.604Z,2.67
2019-01-28T00:53:50.697Z,2.61
2019-01-28T00:58:53.692Z,2.83
2019-01-28T01:03:56.143Z,2.87
2019-01-28T01:08:58.432Z,2.68
2019-01-28T01:14:00.720Z,2.65
2019-01-28T01:19:03.777Z,2.57
2019-01-28T01:24:06.324Z,2.35
2019-01-28T01:29:09.386Z,2.41
2019-01-28T01:34:11.724Z,2.56
2019-01-28T01:39:14.416Z,2.47
2019-01-28T01:44:16.711Z,2.39
2019-01-28T01:49:19.443Z,2.34
2019-01-28T01:54:21.893Z,2.52
2019-01-28T01:59:24.764Z,2.41
2019-01-28T02:04:27.594Z,2.46
2019-01-28T02:09:30.162Z,2.39
2019-01-28T02:14:32.179Z,2.16
2019-01-28T02:19:34.823Z,2.30
2019-01-28T02:24:37.254Z,2.18
2019-01-28T02:29:39.625Z,2.31
2019-01-28T02:34:41.965Z,2.42
2019-01-28T02:39:44.748Z,2.24
2019-01-28T02:44:47.592Z,2.36
2019-01-28T02:49:49.962Z,2.60
2019-01-28T02:54:52.427Z,2.37
2019-01-28T02:59:55.096Z,2.35
2019-01-28T03:04:57.384Z,2.48
2019-01-28T03:09:59.700Z,2.47
2019-01-28T03:15:02.190Z,2.34
2019-01-28T03:20:05.995Z,2.27
2019-01-28T03:25:09.589Z,2.16
2019-01-28T03:30:14.842Z,2.29
2019-01-28T03:35:18.140Z,2.30
2019-01-28T03:40:21.110Z,2.25
2019-01-28T03:45:23.598Z,2.16
2019-01-28T03:50:26.567Z,2.13
2019-01-28T03:55:29.303Z,2.16
2019-01-28T04:00:32.158Z,2.25
2019-01-28T04:05:34.470Z,2.29
2019-01-28T04:10:37.549Z,1.98
2019-01-28T04:15:39.790Z,2.06
2019-01-28T04:20:42.076Z,2.02
2019-01-28T04:25:44.633Z,2.00
2019-01-28T04:30:47.683Z,1.90
2019-01-28T04:35:50.385Z,2.02
2019-01-28T04:40:52.892Z,2.09
2019-01-28T04:45:55.196Z,2.13
2019-01-28T04:50:57.789Z,2.32
2019-01-28T04:56:00.788Z,2.23
2019-01-28T05:01:03.440Z,2.23
2019-01-28T05:06:06.413Z,2.30
2019-01-28T05:11:08.578Z,2.32
2019-01-28T05:16:11.332Z,2.33
2019-01-28T05:21:14.315Z,2.39
2019-01-28T05:26:16.390Z,2.39
2019-01-28T05:31:18.823Z,2.30
2019-01-28T05:36:21.696Z,2.26
2019-01-28T05:41:24.694Z,2.28
2019-01-28T05:46:27.259Z,2.31
2019-01-28T05:51:29.523Z,2.49
2019-01-28T05:56:32.234Z,2.41
2019-01-28T06:01:34.276Z,2.35
2019-01-28T06:06:37.282Z,2.26
2019-01-28T06:11:39.883Z,2.19
2019-01-28T06:16:41.897Z,2.25
2019-01-28T06:21:44.107Z,2.26
2019-01-28T06:26:46.549Z,2.29
2019-01-28T06:31:48.861Z,2.27
2019-01-28T06:36:51.570Z,2.30
2019-01-28T06:41:54.249Z,2.28
2019-01-28T06:46:56.733Z,2.33
2019-01-28T06:51:59.401Z,2.33
2019-01-28T06:57:01.984Z,2.37
2019-01-28T07:02:05.393Z,2.49
2019-01-28T07:07:07.994Z,2.51
2019-01-28T07:12:10.920Z,2.60
2019-01-28T07:17:13.795Z,2.69
2019-01-28T07:22:16.712Z,2.95
2019-01-28T07:27:19.728Z,3.06
2019-01-28T07:32:22.765Z,3.09
2019-01-28T07:37:25.086Z,3.01
2019-01-28T07:42:28.233Z,3.15
2019-01-28T07:47:30.791Z,2.99
2019-01-28T07:52:32.788Z,3.05
2019-01-28T07:57:35.901Z,3.20
2019-01-28T08:02:38.584Z,3.32
2019-01-28T08:07:41.546Z,3.29
2019-01-28T08:12:44.742Z,3.38
2019-01-28T08:17:47.987Z,3.55
2019-01-28T08:22:50.788Z,3.60
2019-01-28T08:27:53.464Z,3.63
2019-01-28T08:32:56.173Z,3.57
2019-01-28T08:37:59.491Z,3.50
2019-01-28T08:43:02.930Z,3.72
2019-01-28T08:48:05.767Z,3.77
2019-01-28T08:53:07.854Z,3.85
2019-01-28T08:58:10.462Z,3.66
2019-01-28T09:03:13.103Z,3.83
2019-01-28T09:08:16.149Z,3.55
2019-01-28T09:13:17.925Z,3.40
2019-01-28T09:18:26.201Z,3.71
2019-01-28T09:23:25.000Z,3.64
2019-01-28T09:28:27.790Z,3.49
2019-01-28T09:33:29.748Z,3.64
2019-01-28T09:38:32.557Z,3.73
2019-01-28T09:43:35.448Z,4.04
2019-01-28T09:48:37.862Z,4.10
2019-01-28T09:53:40.028Z,4.01
2019-01-28T09:58:42.521Z,4.03
2019-01-28T10:03:45.476Z,4.23
2019-01-28T10:08:49.825Z,4.29
2019-01-28T10:13:51.852Z,4.02
2019-01-28T10:18:54.123Z,3.97
2019-01-28T10:23:57.263Z,3.89
2019-01-28T10:29:00.219Z,3.98
2019-01-28T10:34:03.158Z,3.92
2019-01-28T10:39:10.173Z,3.76
2019-01-28T10:44:13.557Z,3.85
2019-01-28T10:49:15.853Z,3.90
2019-01-28T10:54:18.350Z,4.07
2019-01-28T10:59:21.218Z,3.79
2019-01-28T11:04:24.356Z,3.75
2019-01-28T11:09:26.793Z,3.55
2019-01-28T11:14:29.252Z,3.70
2019-01-28T11:19:32.448Z,3.48
2019-01-28T11:24:35.441Z,3.81
2019-01-28T11:29:38.264Z,4.03
2019-01-28T11:34:40.986Z,3.86
2019-01-28T11:39:43.972Z,3.77
2019-01-28T11:44:46.531Z,3.80
2019-01-28T11:49:49.710Z,3.84
2019-01-28T11:54:52.829Z,3.85
2019-01-28T11:59:55.981Z,3.68
2019-01-28T12:04:58.644Z,3.86
2019-01-28T12:10:01.472Z,3.77
2019-01-28T12:15:06.220Z,3.84
2019-01-28T12:20:09.157Z,4.00
2019-01-28T12:25:12.506Z,4.03
2019-01-28T12:30:18.235Z,4.25
2019-01-28T12:35:21.709Z,4.16
2019-01-28T12:40:24.314Z,4.12
2019-01-28T12:45:26.622Z,4.27
2019-01-28T12:50:29.522Z,4.54
2019-01-28T12:55:33.935Z,4.60
2019-01-28T13:00:39.946Z,4.69
2019-01-28T13:05:42.721Z,4.38
2019-01-28T13:10:45.678Z,4.22
2019-01-28T13:15:48.983Z,4.29
2019-01-28T13:20:51.576Z,4.27
2019-01-28T13:25:54.277Z,4.35
2019-01-28T13:30:57.338Z,4.48
2019-01-28T13:36:00.551Z,4.56
2019-01-28T13:41:03.109Z,4.32
2019-01-28T13:46:05.526Z,4.23
2019-01-28T13:51:08.241Z,4.28
2019-01-28T13:56:11.436Z,4.45
2019-01-28T14:01:14.348Z,4.39
2019-01-28T14:06:17.343Z,4.46
2019-01-28T14:11:20.080Z,4.44
2019-01-28T14:16:22.153Z,4.39
2019-01-28T14:21:24.562Z,4.31
2019-01-28T14:26:27.436Z,4.34
2019-01-28T14:31:29.827Z,4.34
2019-01-28T14:36:32.850Z,4.23
2019-01-28T14:41:35.647Z,4.15
2019-01-28T14:46:38.733Z,4.11
2019-01-28T14:51:41.703Z,4.27
2019-01-28T14:56:44.139Z,4.30
2019-01-28T15:01:46.845Z,4.33
2019-01-28T15:06:49.226Z,4.29
2019-01-28T15:11:51.720Z,4.39
2019-01-28T15:16:54.215Z,4.35
2019-01-28T15:21:56.380Z,4.31
2019-01-28T15:26:59.130Z,4.26
2019-01-28T15:32:01.473Z,4.14
2019-01-28T15:37:04.292Z,3.99
2019-01-28T15:42:07.043Z,4.07
2019-01-28T15:47:10.070Z,4.15
2019-01-28T15:52:12.896Z,4.15
2019-01-28T15:57:15.274Z,4.17
2019-01-28T16:02:17.671Z,4.25
2019-01-28T16:07:20.280Z,4.20
2019-01-28T16:12:22.705Z,3.88
2019-01-28T16:17:25.956Z,3.57
2019-01-28T16:22:28.969Z,3.52
2019-01-28T16:27:31.596Z,3.36
2019-01-28T16:32:34.698Z,3.41
2019-01-28T16:37:37.577Z,3.32
2019-01-28T16:42:40.082Z,3.32
2019-01-28T16:47:42.871Z,3.20
2019-01-28T16:52:45.319Z,2.95
2019-01-28T16:57:48.371Z,2.79
2019-01-28T17:02:51.614Z,2.73
2019-01-28T17:07:54.544Z,2.61
2019-01-28T17:12:56.984Z,2.60
2019-01-28T17:17:59.528Z,2.67
2019-01-28T17:23:02.970Z,2.60
2019-01-28T17:28:05.256Z,2.49
2019-01-28T17:33:08.542Z,2.65
2019-01-28T17:38:11.471Z,2.46
2019-01-28T17:43:15.668Z,2.40
2019-01-28T17:48:18.204Z,2.26
2019-01-28T17:53:21.028Z,2.22
2019-01-28T17:58:23.824Z,2.20
2019-01-28T18:03:26.627Z,2.29
2019-01-28T18:08:29.424Z,1.94
2019-01-28T18:13:35.161Z,2.04
2019-01-28T18:18:37.999Z,2.16
2019-01-28T18:23:47.050Z,1.96
2019-01-28T18:28:52.646Z,2.10
2019-01-28T18:33:55.431Z,1.94
2019-01-28T18:38:58.550Z,1.89
2019-01-28T18:44:01.631Z,1.77
2019-01-28T18:49:05.256Z,1.90
2019-01-28T18:54:09.299Z,1.68
2019-01-28T18:59:12.788Z,1.80
2019-01-28T19:04:16.110Z,1.88
2019-01-28T19:09:26.860Z,1.77
2019-01-28T19:14:44.640Z,1.85
2019-01-28T19:20:16.436Z,1.60
2019-01-28T19:25:20.165Z,1.61
2019-01-28T19:30:24.302Z,1.63
2019-01-28T19:35:27.841Z,1.74
2019-01-28T19:40:30.985Z,1.74
2019-01-28T19:45:36.276Z,1.60
2019-01-28T19:50:41.023Z,1.50
2019-01-28T19:55:46.527Z,1.54
2019-01-28T20:00:53.793Z,1.54
2019-01-28T20:06:00.260Z,1.57
2019-01-28T20:11:06.253Z,1.55
2019-01-28T20:16:12.301Z,1.44
2019-01-28T20:21:23.630Z,1.42
2019-01-28T20:26:25.817Z,1.52
2019-01-28T20:31:31.506Z,1.56
2019-01-28T20:36:36.426Z,1.60
2019-01-28T20:41:41.984Z,1.58
2019-01-28T20:46:45.946Z,1.54
2019-01-28T20:51:52.011Z,1.44
2019-01-28T20:56:56.191Z,1.50
2019-01-28T21:01:59.742Z,1.38
2019-01-28T21:07:02.574Z,1.43
2019-01-28T21:12:05.451Z,1.37
2019-01-28T21:17:10.712Z,1.52
2019-01-28T21:22:13.099Z,1.50
2019-01-28T21:27:18.486Z,1.55
2019-01-28T21:32:21.983Z,1.52
2019-01-28T21:37:31.011Z,1.30
2019-01-28T21:42:33.846Z,1.29
2019-01-28T21:47:36.927Z,1.25
2019-01-28T21:52:39.519Z,1.16
2019-01-28T21:57:42.716Z,1.11
2019-01-28T22:02:45.835Z,1.21
2019-01-28T22:07:48.792Z,1.22
2019-01-28T22:12:51.910Z,1.16
2019-01-28T22:17:54.909Z,1.14
2019-01-28T22:22:57.861Z,1.18
2019-01-28T22:28:00.619Z,1.09
2019-01-28T22:33:03.415Z,1.05
2019-01-28T22:38:06.031Z,0.93
2019-01-28T22:43:08.321Z,0.93
2019-01-28T22:48:10.520Z,0.89
2019-01-28T22:53:13.509Z,0.75
2019-01-28T22:58:15.909Z,0.77
2019-01-28T23:09:53.758Z,0.63
2019-01-28T23:14:56.829Z,0.58
2019-01-28T23:20:00.255Z,0.70
2019-01-28T23:25:05.808Z,0.64
2019-01-28T23:30:10.828Z,0.59
2019-01-28T23:35:14.967Z,0.34
2019-01-28T23:40:18.195Z,0.25
2019-01-28T23:45:21.513Z,0.10
2019-01-28T23:50:24.408Z,0.12
2019-01-28T23:55:27.938Z,0.29
